createdAt,value
2023-04-23T00:00:54.867Z,50.875313
2023-04-23T00:01:54.429Z,50.875309
2023-04-23T00:02:53.514Z,50.875359
2023-04-23T00:03:53.497Z,50.875401
2023-04-23T00:04:53.510Z,50.875320
2023-04-23T00:05:54.400Z,50.875362
2023-04-23T00:06:53.379Z,50.875065
2023-04-23T00:07:53.357Z,50.875099
2023-04-23T00:08:53.358Z,50.875305
2023-04-23T00:09:53.360Z,50.875309
2023-04-23T00:10:53.328Z,50.875298
2023-04-23T00:11:53.335Z,50.875484
2023-04-23T00:12:53.312Z,50.875465
2023-04-23T00:13:53.304Z,50.875355
2023-04-23T00:14:53.288Z,50.875286
2023-04-23T00:15:53.402Z,50.875259
2023-04-23T00:16:53.276Z,50.875248
2023-04-23T00:17:53.341Z,50.875195
2023-04-23T00:18:53.329Z,50.875046
2023-04-23T00:19:53.245Z,50.875019
2023-04-23T00:20:53.224Z,50.874466
2023-04-23T00:21:53.225Z,50.874474
2023-04-23T00:22:53.202Z,50.875019
2023-04-23T00:23:53.190Z,50.875187
2023-04-23T00:24:53.187Z,50.875385
2023-04-23T00:25:53.172Z,50.875351
2023-04-23T00:26:53.182Z,50.875401
2023-04-23T00:27:53.161Z,50.875324
2023-04-23T00:28:53.141Z,50.875301
2023-04-23T00:29:53.136Z,50.875320
2023-04-23T00:30:53.128Z,50.875198
2023-04-23T00:31:53.179Z,50.875282
2023-04-23T00:32:53.146Z,50.875160
2023-04-23T00:33:53.093Z,50.875084
2023-04-23T00:34:53.090Z,50.875298
2023-04-23T00:35:53.068Z,50.875443
2023-04-23T00:36:53.081Z,50.875088
2023-04-23T00:37:53.066Z,50.875050
2023-04-23T00:38:53.049Z,50.875332
2023-04-23T00:39:53.052Z,50.875393
2023-04-23T00:40:53.056Z,50.875362
2023-04-23T00:41:53.036Z,50.875263
2023-04-23T00:42:53.014Z,50.875355
2023-04-23T00:43:53.026Z,50.875355
2023-04-23T00:44:53.000Z,50.875355
2023-04-23T00:45:53.015Z,50.875355
2023-04-23T00:46:52.983Z,50.875355
2023-04-23T00:47:52.991Z,50.875355
2023-04-23T00:48:52.957Z,50.875355
2023-04-23T00:49:52.945Z,50.875355
2023-04-23T00:50:52.935Z,50.875355
2023-04-23T00:51:52.938Z,50.875355
2023-04-23T00:52:52.923Z,50.875355
2023-04-23T00:53:52.924Z,50.875355
2023-04-23T00:54:52.897Z,50.875355
2023-04-23T00:55:52.901Z,50.875355
2023-04-23T00:56:52.900Z,50.875355
2023-04-23T00:57:52.871Z,50.875355
2023-04-23T00:58:52.855Z,50.875355
2023-04-23T00:59:52.862Z,50.875355
2023-04-23T01:00:52.862Z,50.875355
2023-04-23T01:01:53.840Z,50.875355
2023-04-23T01:02:53.031Z,50.875355
2023-04-23T01:03:53.057Z,50.875355
2023-04-23T01:04:52.800Z,50.875355
2023-04-23T01:05:52.782Z,50.875355
2023-04-23T01:06:52.791Z,50.875355
2023-04-23T01:07:52.775Z,50.875355
2023-04-23T01:08:52.767Z,50.875355
2023-04-23T01:09:52.745Z,50.875355
2023-04-23T01:10:52.759Z,50.875355
2023-04-23T01:11:52.736Z,50.875355
2023-04-23T01:12:52.723Z,50.875355
2023-04-23T01:13:52.708Z,50.875355
2023-04-23T01:14:52.701Z,50.875355
2023-04-23T01:15:52.704Z,50.875355
2023-04-23T01:16:52.759Z,50.875355
2023-04-23T01:17:52.751Z,50.875355
2023-04-23T01:18:52.663Z,50.875355
2023-04-23T01:19:52.650Z,50.875355
2023-04-23T01:20:52.660Z,50.875355
2023-04-23T01:21:52.636Z,50.875355
2023-04-23T01:22:52.625Z,50.875355
2023-04-23T01:23:52.621Z,50.875355
2023-04-23T01:24:52.602Z,50.875355
2023-04-23T01:25:52.641Z,50.875355
2023-04-23T01:26:52.587Z,50.875355
2023-04-23T01:27:52.583Z,50.875355
2023-04-23T01:28:52.578Z,50.875355
2023-04-23T01:29:52.557Z,50.875355
2023-04-23T01:30:52.569Z,50.875355
2023-04-23T01:31:52.546Z,50.875355
2023-04-23T01:32:52.558Z,50.875355
2023-04-23T01:33:52.517Z,50.875355
2023-04-23T01:34:52.509Z,50.875355
2023-04-23T01:35:52.513Z,50.875355
2023-04-23T01:36:52.489Z,50.875355
2023-04-23T01:37:52.540Z,50.875355
2023-04-23T01:38:52.466Z,50.875355
2023-04-23T01:39:52.466Z,50.875355
2023-04-23T01:40:52.462Z,50.875355
2023-04-23T01:41:52.439Z,50.875355
2023-04-23T01:42:52.472Z,50.875355
2023-04-23T01:43:52.427Z,50.875355
2023-04-23T01:44:52.399Z,50.875355
2023-04-23T01:45:52.451Z,50.875355
2023-04-23T01:46:52.388Z,50.875355
2023-04-23T01:47:52.388Z,50.875355
2023-04-23T01:48:52.367Z,50.875355
2023-04-23T01:49:52.362Z,50.875355
2023-04-23T01:50:52.357Z,50.875355
2023-04-23T01:51:52.332Z,50.875355
2023-04-23T01:52:52.333Z,50.875355
2023-04-23T01:53:52.316Z,50.875355
2023-04-23T01:54:52.308Z,50.875355
2023-04-23T01:55:52.301Z,50.875355
2023-04-23T01:56:52.285Z,50.875355
2023-04-23T01:57:52.273Z,50.875355
2023-04-23T01:58:52.268Z,50.875355
2023-04-23T01:59:52.255Z,50.875355
2023-04-23T02:00:52.267Z,50.875355
2023-04-23T02:01:52.252Z,50.875355
2023-04-23T02:02:52.369Z,50.875355
2023-04-23T02:03:52.301Z,50.875355
2023-04-23T02:04:52.209Z,50.875355
2023-04-23T02:05:52.206Z,50.875355
2023-04-23T02:06:52.202Z,50.875355
2023-04-23T02:07:52.200Z,50.875355
2023-04-23T02:08:52.165Z,50.875355
2023-04-23T02:09:52.150Z,50.875355
2023-04-23T02:10:52.156Z,50.875355
2023-04-23T02:11:52.136Z,50.875355
2023-04-23T02:12:52.121Z,50.875355
2023-04-23T02:13:52.112Z,50.875355
2023-04-23T02:14:52.116Z,50.875355
2023-04-23T02:15:52.131Z,50.875355
2023-04-23T02:16:52.097Z,50.875355
2023-04-23T02:17:52.128Z,50.875355
2023-04-23T02:18:52.066Z,50.875355
2023-04-23T02:19:52.059Z,50.875355
2023-04-23T02:20:52.056Z,50.875355
2023-04-23T02:21:52.033Z,50.875355
2023-04-23T02:22:53.041Z,50.875355
2023-04-23T02:23:52.010Z,50.875355
2023-04-23T02:24:52.007Z,50.875355
2023-04-23T02:25:52.009Z,50.875355
2023-04-23T02:26:51.989Z,50.875355
2023-04-23T02:27:51.964Z,50.875355
2023-04-23T02:28:52.000Z,50.875355
2023-04-23T02:29:51.960Z,50.875607
2023-04-23T02:30:51.962Z,50.875481
2023-04-23T02:31:51.986Z,50.875492
2023-04-23T02:32:51.959Z,50.875286
2023-04-23T02:33:51.917Z,50.875359
2023-04-23T02:34:51.900Z,50.875526
2023-04-23T02:35:51.889Z,50.875454
2023-04-23T02:36:51.880Z,50.875454
2023-04-23T02:37:51.869Z,50.875481
2023-04-23T02:38:51.864Z,50.875397
2023-04-23T02:39:51.849Z,50.875278
2023-04-23T02:40:52.851Z,50.875366
2023-04-23T02:41:51.835Z,50.875244
2023-04-23T02:42:51.810Z,50.875629
2023-04-23T02:43:51.807Z,50.875149
2023-04-23T02:44:51.796Z,50.875671
2023-04-23T02:45:51.793Z,50.876019
2023-04-23T02:46:51.837Z,50.875877
2023-04-23T02:47:51.809Z,50.875526
2023-04-23T02:48:51.762Z,50.875546
2023-04-23T02:49:51.785Z,50.875553
2023-04-23T02:50:51.740Z,50.875530
2023-04-23T02:51:51.746Z,50.875702
2023-04-23T02:52:51.727Z,50.875584
2023-04-23T02:53:51.703Z,50.875488
2023-04-23T02:54:51.695Z,50.875587
2023-04-23T02:55:51.683Z,50.875740
2023-04-23T02:56:51.690Z,50.875622
2023-04-23T02:57:51.651Z,50.875774
2023-04-23T02:58:52.675Z,50.875957
2023-04-23T02:59:51.644Z,50.875805
2023-04-23T03:00:51.684Z,50.875595
2023-04-23T03:01:51.694Z,50.875561
2023-04-23T03:02:51.694Z,50.875633
2023-04-23T03:03:51.704Z,50.875767
2023-04-23T03:04:51.595Z,50.875824
2023-04-23T03:05:51.590Z,50.875408
2023-04-23T03:06:51.596Z,50.875713
2023-04-23T03:07:51.580Z,50.875648
2023-04-23T03:08:51.555Z,50.875538
2023-04-23T03:09:51.576Z,50.875488
2023-04-23T03:10:51.542Z,50.875313
2023-04-23T03:11:51.542Z,50.875381
2023-04-23T03:12:51.519Z,50.875530
2023-04-23T03:13:51.536Z,50.875401
2023-04-23T03:14:51.500Z,50.875397
2023-04-23T03:15:51.489Z,50.875526
2023-04-23T03:16:51.503Z,50.875366
2023-04-23T03:17:51.501Z,50.875313
2023-04-23T03:18:51.486Z,50.875332
2023-04-23T03:19:51.455Z,50.875496
2023-04-23T03:20:51.457Z,50.875473
2023-04-23T03:21:51.450Z,50.875603
2023-04-23T03:22:51.419Z,50.875378
2023-04-23T03:23:51.415Z,50.875530
2023-04-23T03:24:51.407Z,50.875530
2023-04-23T03:25:51.392Z,50.875530
2023-04-23T03:26:51.404Z,50.875530
2023-04-23T03:27:51.390Z,50.875530
2023-04-23T03:28:51.378Z,50.875530
2023-04-23T03:29:51.351Z,50.875530
2023-04-23T03:30:51.390Z,50.875530
2023-04-23T03:31:51.342Z,50.875530
2023-04-23T03:32:51.375Z,50.875530
2023-04-23T03:33:51.320Z,50.875530
2023-04-23T03:34:51.312Z,50.875530
2023-04-23T03:35:51.303Z,50.875530
2023-04-23T03:36:51.316Z,50.875530
2023-04-23T03:37:51.272Z,50.875530
2023-04-23T03:38:51.258Z,50.875530
2023-04-23T03:39:51.264Z,50.875530
2023-04-23T03:40:51.255Z,50.875530
2023-04-23T03:41:51.237Z,50.875530
2023-04-23T03:42:51.242Z,50.875530
2023-04-23T03:43:51.232Z,50.875530
2023-04-23T03:44:51.206Z,50.875530
2023-04-23T03:45:51.280Z,50.875530
2023-04-23T03:46:51.212Z,50.875530
2023-04-23T03:47:51.179Z,50.875530
2023-04-23T03:48:51.164Z,50.875530
2023-04-23T03:49:51.148Z,50.875530
2023-04-23T03:50:51.144Z,50.875530
2023-04-23T03:51:51.145Z,50.875530
2023-04-23T03:52:51.124Z,50.875530
2023-04-23T03:53:51.122Z,50.875530
2023-04-23T03:54:51.106Z,50.875530
2023-04-23T03:55:51.103Z,50.875530
2023-04-23T03:56:51.102Z,50.875530
2023-04-23T03:57:51.078Z,50.875530
2023-04-23T03:58:51.069Z,50.875530
2023-04-23T03:59:51.054Z,50.875530
2023-04-23T04:00:51.053Z,50.875530
2023-04-23T04:01:51.063Z,50.875530
2023-04-23T04:02:51.203Z,50.875530
2023-04-23T04:03:51.362Z,50.875530
2023-04-23T04:04:51.194Z,50.875530
2023-04-23T04:05:51.098Z,50.875530
2023-04-23T04:06:50.993Z,50.875530
2023-04-23T04:07:50.983Z,50.875530
2023-04-23T04:08:50.961Z,50.875530
2023-04-23T04:09:50.958Z,50.875530
2023-04-23T04:10:50.948Z,50.875530
2023-04-23T04:11:52.868Z,50.875530
2023-04-23T04:12:50.928Z,50.875530
2023-04-23T04:13:50.926Z,50.875530
2023-04-23T04:14:50.913Z,50.875530
2023-04-23T04:15:50.917Z,50.875530
2023-04-23T04:16:50.885Z,50.875530
2023-04-23T04:17:50.914Z,50.875530
2023-04-23T04:18:50.871Z,50.875530
2023-04-23T04:19:50.857Z,50.875530
2023-04-23T04:20:50.845Z,50.875530
2023-04-23T04:21:50.832Z,50.875530
2023-04-23T04:22:50.840Z,50.875530
2023-04-23T04:23:50.814Z,50.875530
2023-04-23T04:24:50.807Z,50.875530
2023-04-23T04:25:50.799Z,50.875530
2023-04-23T04:26:50.788Z,50.875530
2023-04-23T04:27:50.786Z,50.875530
2023-04-23T04:28:50.765Z,50.875530
2023-04-23T04:29:50.774Z,50.875530
2023-04-23T04:30:50.747Z,50.875530
2023-04-23T04:31:50.947Z,50.875530
2023-04-23T04:32:50.809Z,50.875530
2023-04-23T04:33:50.723Z,50.875530
2023-04-23T04:34:50.712Z,50.875530
2023-04-23T04:35:50.700Z,50.875530
2023-04-23T04:36:50.684Z,50.875530
2023-04-23T04:37:50.688Z,50.875530
2023-04-23T04:38:50.662Z,50.875530
2023-04-23T04:39:50.663Z,50.875740
2023-04-23T04:40:50.660Z,50.875614
2023-04-23T04:41:50.642Z,50.875652
2023-04-23T04:42:50.646Z,50.875633
2023-04-23T04:43:50.618Z,50.875690
2023-04-23T04:44:50.610Z,50.875706
2023-04-23T04:45:50.599Z,50.875603
2023-04-23T04:46:50.645Z,50.875591
2023-04-23T04:47:50.610Z,50.875626
2023-04-23T04:48:50.569Z,50.875626
2023-04-23T04:49:50.554Z,50.875626
2023-04-23T04:50:50.547Z,50.875626
2023-04-23T04:51:50.536Z,50.875626
2023-04-23T04:52:50.549Z,50.875687
2023-04-23T04:53:50.538Z,50.875237
2023-04-23T04:54:50.506Z,50.875233
2023-04-23T04:55:50.496Z,50.875393
2023-04-23T04:56:50.484Z,50.875214
2023-04-23T04:57:50.491Z,50.875111
2023-04-23T04:58:50.465Z,50.875137
2023-04-23T04:59:50.455Z,50.875282
2023-04-23T05:00:50.487Z,50.875286
2023-04-23T05:01:50.440Z,50.875195
2023-04-23T05:02:50.557Z,50.875313
2023-04-23T05:03:50.564Z,50.875175
2023-04-23T05:04:50.428Z,50.875252
2023-04-23T05:05:50.403Z,50.875290
2023-04-23T05:06:50.388Z,50.875153
2023-04-23T05:07:50.393Z,50.875252
2023-04-23T05:08:50.369Z,50.874992
2023-04-23T05:09:50.359Z,50.875271
2023-04-23T05:10:50.381Z,50.875244
2023-04-23T05:11:50.334Z,50.875206
2023-04-23T05:12:50.341Z,50.875179
2023-04-23T05:13:50.364Z,50.875153
2023-04-23T05:14:51.749Z,50.875027
2023-04-23T05:15:50.298Z,50.875031
2023-04-23T05:16:50.327Z,50.875130
2023-04-23T05:17:50.348Z,50.875099
2023-04-23T05:18:50.273Z,50.875107
2023-04-23T05:19:50.260Z,50.875175
2023-04-23T05:20:50.258Z,50.875252
2023-04-23T05:21:50.245Z,50.874996
2023-04-23T05:22:50.244Z,50.874996
2023-04-23T05:23:50.220Z,50.874847
2023-04-23T05:24:50.214Z,50.874947
2023-04-23T05:25:50.678Z,50.874924
2023-04-23T05:26:50.296Z,50.874924
2023-04-23T05:27:50.183Z,50.874924
2023-04-23T05:28:50.176Z,50.874924
2023-04-23T05:29:50.160Z,50.874924
2023-04-23T05:30:50.148Z,50.875080
2023-04-23T05:31:50.338Z,50.875797
2023-04-23T05:32:50.166Z,50.874969
2023-04-23T05:33:50.910Z,50.874905
2023-04-23T05:34:50.109Z,50.874905
2023-04-23T05:35:50.097Z,50.874905
2023-04-23T05:36:50.092Z,50.875126
2023-04-23T05:37:50.083Z,50.875225
2023-04-23T05:38:50.165Z,50.875271
2023-04-23T05:39:50.060Z,50.875134
2023-04-23T05:40:50.043Z,50.875156
2023-04-23T05:41:50.029Z,50.875248
2023-04-23T05:42:50.041Z,50.875259
2023-04-23T05:43:50.026Z,50.875229
2023-04-23T05:44:50.003Z,50.875137
2023-04-23T05:45:50.049Z,50.875183
2023-04-23T05:46:49.996Z,50.875267
2023-04-23T05:47:50.008Z,50.875504
2023-04-23T05:48:49.964Z,50.875504
2023-04-23T05:49:49.957Z,50.875504
2023-04-23T05:50:49.953Z,50.875504
2023-04-23T05:51:49.936Z,50.875504
2023-04-23T05:52:49.940Z,50.875504
2023-04-23T05:53:49.913Z,50.875504
2023-04-23T05:54:49.908Z,50.875504
2023-04-23T05:55:49.899Z,50.875504
2023-04-23T05:56:49.884Z,50.875504
2023-04-23T05:57:49.887Z,50.875504
2023-04-23T05:58:49.868Z,50.875504
2023-04-23T05:59:49.853Z,50.875504
2023-04-23T06:00:49.883Z,50.875504
2023-04-23T06:01:49.908Z,50.875504
2023-04-23T06:02:49.928Z,50.875504
2023-04-23T06:03:49.897Z,50.875504
2023-04-23T06:04:50.736Z,50.875504
2023-04-23T06:05:49.840Z,50.875504
2023-04-23T06:06:49.799Z,50.875504
2023-04-23T06:07:49.817Z,50.875504
2023-04-23T06:08:49.767Z,50.875504
2023-04-23T06:09:49.752Z,50.875504
2023-04-23T06:10:49.753Z,50.875504
2023-04-23T06:11:49.740Z,50.875504
2023-04-23T06:12:49.741Z,50.875504
2023-04-23T06:13:49.725Z,50.875504
2023-04-23T06:14:49.712Z,50.875504
2023-04-23T06:15:49.717Z,50.875134
2023-04-23T06:16:49.694Z,50.874931
2023-04-23T06:17:49.712Z,50.875202
2023-04-23T06:18:50.617Z,50.875347
2023-04-23T06:19:49.658Z,50.875362
2023-04-23T06:20:49.648Z,50.875362
2023-04-23T06:21:49.635Z,50.875397
2023-04-23T06:22:49.680Z,50.875381
2023-04-23T06:23:49.625Z,50.875450
2023-04-23T06:24:49.611Z,50.875450
2023-04-23T06:25:52.471Z,50.875355
2023-04-23T06:26:49.598Z,50.875309
2023-04-23T06:27:49.577Z,50.875309
2023-04-23T06:28:49.587Z,50.875309
2023-04-23T06:29:49.564Z,50.875309
2023-04-23T06:30:49.553Z,50.875309
2023-04-23T06:31:49.630Z,50.875309
2023-04-23T06:32:49.543Z,50.875309
2023-04-23T06:33:49.531Z,50.875309
2023-04-23T06:34:59.350Z,50.875309
2023-04-23T06:35:51.509Z,50.875309
2023-04-23T06:36:49.479Z,50.875309
2023-04-23T06:37:49.464Z,50.875309
2023-04-23T06:38:49.471Z,50.875309
2023-04-23T06:39:49.452Z,50.875309
2023-04-23T06:40:49.441Z,50.875309
2023-04-23T06:41:49.445Z,50.875309
2023-04-23T06:42:49.422Z,50.875309
2023-04-23T06:43:49.429Z,50.875309
2023-04-23T06:44:49.411Z,50.875309
2023-04-23T06:45:49.398Z,50.875309
2023-04-23T06:46:49.408Z,50.875309
2023-04-23T06:47:49.466Z,50.875309
2023-04-23T06:48:49.372Z,50.875309
2023-04-23T06:49:49.349Z,50.875309
2023-04-23T06:50:49.343Z,50.875309
2023-04-23T06:51:49.327Z,50.875309
2023-04-23T06:52:49.314Z,50.875309
2023-04-23T06:53:49.324Z,50.875309
2023-04-23T06:54:49.303Z,50.875309
2023-04-23T06:55:49.282Z,50.875309
2023-04-23T06:56:49.278Z,50.875309
2023-04-23T06:57:49.264Z,50.875309
2023-04-23T06:58:49.273Z,50.875309
2023-04-23T06:59:49.254Z,50.875309
2023-04-23T07:00:49.244Z,50.875309
2023-04-23T07:01:49.222Z,50.875309
2023-04-23T07:02:49.302Z,50.875309
2023-04-23T07:03:49.354Z,50.875309
2023-04-23T07:04:49.217Z,50.875309
2023-04-23T07:05:49.206Z,50.875309
2023-04-23T07:06:49.184Z,50.875309
2023-04-23T07:07:49.177Z,50.875309
2023-04-23T07:08:49.181Z,50.875309
2023-04-23T07:09:49.158Z,50.875309
2023-04-23T07:10:49.150Z,50.875309
2023-04-23T07:11:49.149Z,50.875309
2023-04-23T07:12:49.136Z,50.875309
2023-04-23T07:13:49.126Z,50.875309
2023-04-23T07:14:50.110Z,50.875309
2023-04-23T07:15:49.153Z,50.875309
2023-04-23T07:16:49.127Z,50.875309
2023-04-23T07:17:49.205Z,50.875309
2023-04-23T07:18:49.084Z,50.875309
2023-04-23T07:19:49.079Z,50.875309
2023-04-23T07:20:49.058Z,50.875309
2023-04-23T07:21:49.052Z,50.875309
2023-04-23T07:22:49.038Z,50.875309
2023-04-23T07:23:49.039Z,50.875309
2023-04-23T07:24:49.019Z,50.875309
2023-04-23T07:25:49.016Z,50.875309
2023-04-23T07:26:48.999Z,50.875309
2023-04-23T07:27:48.992Z,50.875309
2023-04-23T07:28:50.752Z,50.875309
2023-04-23T07:29:48.971Z,50.875309
2023-04-23T07:30:48.963Z,50.875309
2023-04-23T07:31:48.986Z,50.875309
2023-04-23T07:32:48.963Z,50.875309
2023-04-23T07:33:48.931Z,50.875309
2023-04-23T07:34:48.939Z,50.875309
2023-04-23T07:35:48.916Z,50.875309
2023-04-23T07:36:48.905Z,50.875309
2023-04-23T07:37:48.899Z,50.875309
2023-04-23T07:38:48.885Z,50.875309
2023-04-23T07:39:49.157Z,50.875309
2023-04-23T07:40:48.868Z,50.875309
2023-04-23T07:41:48.858Z,50.875309
2023-04-23T07:42:48.841Z,50.875309
2023-04-23T07:43:48.834Z,50.875309
2023-04-23T07:44:48.839Z,50.875309
2023-04-23T07:45:48.825Z,50.875584
2023-04-23T07:46:48.798Z,50.875587
2023-04-23T07:47:48.833Z,50.875477
2023-04-23T07:48:48.796Z,50.875401
2023-04-23T07:49:48.783Z,50.875423
2023-04-23T07:50:48.770Z,50.875393
2023-04-23T07:51:48.753Z,50.875336
2023-04-23T07:52:48.744Z,50.875381
2023-04-23T07:53:48.735Z,50.875366
2023-04-23T07:54:48.740Z,50.875343
2023-04-23T07:55:48.729Z,50.875351
2023-04-23T07:56:48.707Z,50.875332
2023-04-23T07:57:48.693Z,50.875362
2023-04-23T07:58:48.692Z,50.875343
2023-04-23T07:59:48.685Z,50.875286
2023-04-23T08:00:48.667Z,50.875340
2023-04-23T08:01:48.650Z,50.875340
2023-04-23T08:02:48.740Z,50.875340
2023-04-23T08:03:49.028Z,50.875340
2023-04-23T08:04:48.931Z,50.875340
2023-04-23T08:05:48.614Z,50.875340
2023-04-23T08:06:48.610Z,50.875340
2023-04-23T08:07:48.600Z,50.875381
2023-04-23T08:08:48.666Z,50.875389
2023-04-23T08:09:49.618Z,50.875355
2023-04-23T08:10:48.559Z,50.875553
2023-04-23T08:11:49.486Z,50.875313
2023-04-23T08:12:48.692Z,50.875320
2023-04-23T08:13:48.543Z,50.875416
2023-04-23T08:14:49.202Z,50.875427
2023-04-23T08:15:48.539Z,50.875397
2023-04-23T08:16:48.499Z,50.875454
2023-04-23T08:17:48.522Z,50.875435
2023-04-23T08:19:03.724Z,50.875328
2023-04-23T08:19:50.492Z,50.875294
2023-04-23T08:20:49.185Z,50.875320
2023-04-23T08:21:48.453Z,50.875278
2023-04-23T08:22:48.446Z,50.875332
2023-04-23T08:23:48.436Z,50.875381
2023-04-23T08:24:48.442Z,50.875412
2023-04-23T08:25:48.421Z,50.875389
2023-04-23T08:26:48.399Z,50.875332
2023-04-23T08:27:48.394Z,50.875298
2023-04-23T08:28:48.383Z,50.875248
2023-04-23T08:29:48.395Z,50.875313
2023-04-23T08:30:48.371Z,50.875397
2023-04-23T08:31:48.368Z,50.875751
2023-04-23T08:32:48.411Z,50.875874
2023-04-23T08:33:48.334Z,50.875874
2023-04-23T08:34:48.337Z,50.875874
2023-04-23T08:35:48.321Z,50.875874
2023-04-23T08:36:48.306Z,50.875874
2023-04-23T08:37:48.295Z,50.875874
2023-04-23T08:38:48.289Z,50.875874
2023-04-23T08:39:48.285Z,50.875874
2023-04-23T08:40:48.268Z,50.875874
2023-04-23T08:41:48.279Z,50.875874
2023-04-23T08:42:48.255Z,50.875874
2023-04-23T08:43:48.257Z,50.875874
2023-04-23T08:44:48.234Z,50.875874
2023-04-23T08:45:48.231Z,50.875874
2023-04-23T08:46:48.235Z,50.875874
2023-04-23T08:47:48.255Z,50.875874
2023-04-23T08:48:48.205Z,50.875874
2023-04-23T08:49:48.188Z,50.875874
2023-04-23T08:50:48.167Z,50.875874
2023-04-23T08:51:48.156Z,50.875874
2023-04-23T08:52:48.153Z,50.875874
2023-04-23T08:53:48.132Z,50.875874
2023-04-23T08:54:48.147Z,50.875874
2023-04-23T08:55:48.121Z,50.875874
2023-04-23T08:56:48.111Z,50.875874
2023-04-23T08:57:48.101Z,50.875874
2023-04-23T08:58:48.072Z,50.875874
2023-04-23T08:59:49.086Z,50.875874
2023-04-23T09:00:48.102Z,50.875874
2023-04-23T09:01:48.073Z,50.875874
2023-04-23T09:02:48.241Z,50.875874
2023-04-23T09:03:48.154Z,50.875874
2023-04-23T09:04:50.772Z,50.875874
2023-04-23T09:05:48.025Z,50.875874
2023-04-23T09:06:48.008Z,50.875874
2023-04-23T09:07:48.006Z,50.875874
2023-04-23T09:08:48.005Z,50.875874
2023-04-23T09:09:48.013Z,50.875874
2023-04-23T09:10:47.964Z,50.875874
2023-04-23T09:11:47.959Z,50.875874
2023-04-23T09:12:47.951Z,50.875874
2023-04-23T09:13:47.931Z,50.875874
2023-04-23T09:14:47.940Z,50.875874
2023-04-23T09:15:47.924Z,50.875874
2023-04-23T09:16:47.942Z,50.875874
2023-04-23T09:17:47.954Z,50.875874
2023-04-23T09:18:47.882Z,50.875874
2023-04-23T09:19:48.742Z,50.875874
2023-04-23T09:20:47.873Z,50.875874
2023-04-23T09:21:47.854Z,50.875874
2023-04-23T09:22:48.026Z,50.875874
2023-04-23T09:23:47.857Z,50.875874
2023-04-23T09:24:48.892Z,50.875874
2023-04-23T09:25:47.820Z,50.875874
2023-04-23T09:28:15.015Z,50.875874
2023-04-23T09:29:15.086Z,50.875874
2023-04-23T09:30:15.009Z,50.875874
2023-04-23T09:31:14.985Z,50.875874
2023-04-23T09:32:15.065Z,50.875874
2023-04-23T09:33:14.970Z,50.875874
2023-04-23T09:34:14.946Z,50.875874
2023-04-23T09:35:17.167Z,50.875874
2023-04-23T09:36:14.978Z,50.875874
2023-04-23T09:37:14.926Z,50.875874
2023-04-23T09:38:14.938Z,50.875874
2023-04-23T09:39:14.937Z,50.875874
2023-04-23T09:40:14.927Z,50.875874
2023-04-23T09:41:14.882Z,50.875874
2023-04-23T09:42:14.873Z,50.875874
2023-04-23T09:43:14.863Z,50.875874
2023-04-23T09:44:14.871Z,50.875874
2023-04-23T09:45:14.864Z,50.875874
2023-04-23T09:46:14.867Z,50.875874
2023-04-23T09:47:14.819Z,50.875874
2023-04-23T09:48:14.813Z,50.875874
2023-04-23T09:49:14.808Z,50.875874
2023-04-23T09:50:14.813Z,50.875874
2023-04-23T09:51:14.814Z,50.875874
2023-04-23T09:52:14.777Z,50.875874
2023-04-23T09:53:14.776Z,50.875874
2023-04-23T09:54:14.755Z,50.875347
2023-04-23T09:55:14.752Z,50.875374
2023-04-23T09:56:15.737Z,50.875427
2023-04-23T09:57:14.737Z,50.875427
2023-04-23T09:58:14.725Z,50.879154
2023-04-23T09:59:15.708Z,50.879154
2023-04-23T10:00:15.407Z,50.875355
2023-04-23T10:01:14.709Z,50.875202
2023-04-23T10:02:14.801Z,50.875328
2023-04-23T10:03:14.850Z,50.875351
2023-04-23T10:04:14.952Z,50.875336
2023-04-23T10:06:25.926Z,50.875385
2023-04-23T10:07:20.126Z,50.875416
2023-04-23T10:08:15.615Z,50.875347
2023-04-23T10:09:14.604Z,50.875355
2023-04-23T10:10:14.592Z,50.875423
2023-04-23T10:13:15.563Z,50.875381
2023-04-23T10:14:14.550Z,50.875355
2023-04-23T10:15:14.556Z,50.875359
2023-04-23T10:16:22.448Z,50.875355
2023-04-23T10:17:16.524Z,50.875359
2023-04-23T10:18:14.513Z,50.875381
2023-04-23T10:19:14.509Z,50.875278
2023-04-23T10:20:14.505Z,50.875233
2023-04-23T10:21:14.492Z,50.875324
2023-04-23T10:23:15.468Z,50.875355
2023-04-23T10:24:14.451Z,50.875416
2023-04-23T10:25:14.449Z,50.875286
2023-04-23T10:26:14.462Z,50.875324
2023-04-23T10:27:28.446Z,50.875359
2023-04-23T10:28:16.420Z,50.875393
2023-04-23T10:29:14.409Z,50.875233
2023-04-23T10:30:14.399Z,50.875214
2023-04-23T10:31:14.424Z,50.875423
2023-04-23T10:32:14.385Z,50.875221
2023-04-23T10:33:26.487Z,50.875458
2023-04-23T10:34:16.381Z,50.875568
2023-04-23T10:35:14.350Z,50.875675
2023-04-23T10:36:14.359Z,50.875412
2023-04-23T10:37:14.340Z,50.875389
2023-04-23T10:38:14.326Z,50.875450
2023-04-23T10:39:20.808Z,50.875587
2023-04-23T10:40:15.436Z,50.875488
2023-04-23T10:41:14.305Z,50.875317
2023-04-23T10:42:14.295Z,50.875252
2023-04-23T10:43:14.270Z,50.875351
2023-04-23T10:44:16.057Z,50.875370
2023-04-23T10:45:23.546Z,50.875465
2023-04-23T10:46:16.304Z,50.875523
2023-04-23T10:47:14.267Z,50.875465
2023-04-23T10:48:14.245Z,50.875443
2023-04-23T10:49:14.226Z,50.875313
2023-04-23T10:50:14.230Z,50.875362
2023-04-23T10:52:19.539Z,50.875408
2023-04-23T10:53:16.168Z,50.875374
2023-04-23T10:54:14.160Z,50.875404
2023-04-23T10:55:14.167Z,50.875347
2023-04-23T10:56:14.154Z,50.875385
2023-04-23T10:57:14.226Z,50.875355
2023-04-23T10:58:14.120Z,50.875484
2023-04-23T10:59:14.119Z,50.875275
2023-04-23T11:00:14.102Z,50.875420
2023-04-23T11:01:14.111Z,50.875473
2023-04-23T11:02:14.165Z,50.875328
2023-04-23T11:03:14.175Z,50.875385
2023-04-23T11:04:14.459Z,50.875332
2023-04-23T11:05:14.055Z,50.875275
2023-04-23T11:06:14.056Z,50.875324
2023-04-23T11:07:14.044Z,50.875462
2023-04-23T11:08:19.356Z,50.875381
2023-04-23T11:09:16.017Z,50.875435
2023-04-23T11:10:14.089Z,50.875362
2023-04-23T11:11:14.013Z,50.875381
2023-04-23T11:12:14.007Z,50.875267
2023-04-23T11:13:13.982Z,50.875278
2023-04-23T11:14:13.972Z,50.875301
2023-04-23T11:15:13.970Z,50.875488
2023-04-23T11:16:13.996Z,50.875374
2023-04-23T11:17:13.944Z,50.875351
2023-04-23T11:18:13.951Z,50.875290
2023-04-23T11:19:13.931Z,50.875324
2023-04-23T11:20:14.179Z,50.875488
2023-04-23T11:21:13.908Z,50.875454
2023-04-23T11:22:13.890Z,50.875443
2023-04-23T11:23:13.879Z,50.875336
2023-04-23T11:24:13.874Z,50.875454
2023-04-23T11:25:13.880Z,50.875572
2023-04-23T11:26:13.870Z,50.875393
2023-04-23T11:27:13.844Z,50.875549
2023-04-23T11:28:13.840Z,50.875359
2023-04-23T11:29:13.827Z,50.875355
2023-04-23T11:30:13.939Z,50.875347
2023-04-23T11:31:13.818Z,50.875374